Time;durP1;ratioP1;P1;durP2;ratioP2;P2;SDS_P1;SDS_P2;PMS_P1;PMS_P2;Temp;Humidity;BMP_temperature;BMP_pressure;BME280_temperature;BME280_humidity;BME280_pressure;Samples;Min_cycle;Max_cycle;Signal;HPM_P1;HPM_P2
2020/12/25 00:00:11;;;;;;;6.53;4.60;;;;;;;;;;2076777;28;20256;-54
2020/12/25 00:01:14;;;;;;;4.73;4.23;;;;;;;;;;2082805;28;20203;-56
2020/12/25 00:02:14;;;;;;;10.00;5.13;;;;;;;;;;2087261;28;20192;-59
2020/12/25 00:03:15;;;;;;;7.80;4.97;;;;;;;;;;2087825;28;20217;-55
2020/12/25 00:04:16;;;;;;;5.80;5.23;;;;;;;;;;2089536;28;20190;-57
2020/12/25 00:05:16;;;;;;;6.20;5.20;;;;;;;;;;2087433;28;20191;-59
2020/12/25 00:06:17;;;;;;;6.53;5.13;;;;;;;;;;2088584;28;20160;-56
2020/12/25 00:07:17;;;;;;;5.37;4.90;;;;;;;;;;2091561;28;20176;-57
2020/12/25 00:08:20;;;;;;;6.63;5.10;;;;;;;;;;2092183;28;20231;-58
2020/12/25 00:09:21;;;;;;;5.50;5.00;;;;;;;;;;2092660;28;20171;-58
2020/12/25 00:10:21;;;;;;;12.00;5.23;;;;;;;;;;2092369;28;20182;-56
2020/12/25 00:11:21;;;;;;;7.17;4.90;;;;;;;;;;2083333;28;20660;-55
2020/12/25 00:12:21;;;;;;;5.23;4.73;;;;;;;;;;2082342;28;20203;-57
2020/12/25 00:13:22;;;;;;;7.70;4.77;;;;;;;;;;2091551;28;20182;-56
2020/12/25 00:14:22;;;;;;;7.50;5.07;;;;;;;;;;2082756;28;20172;-57
2020/12/25 00:15:22;;;;;;;6.50;4.90;;;;;;;;;;2082311;28;20299;-55
2020/12/25 00:16:26;;;;;;;8.03;4.70;;;;;;;;;;2081809;28;20198;-57
2020/12/25 00:17:26;;;;;;;8.53;4.87;;;;;;;;;;2082484;28;20251;-56
2020/12/25 00:18:27;;;;;;;5.10;4.60;;;;;;;;;;2083341;28;20209;-55
2020/12/25 00:19:27;;;;;;;7.93;5.13;;;;;;;;;;2091770;28;20259;-54
2020/12/25 00:20:28;;;;;;;7.27;4.73;;;;;;;;;;2091466;28;20179;-56
2020/12/25 00:21:28;;;;;;;5.57;4.33;;;;;;;;;;2082179;28;20183;-57
2020/12/25 00:22:28;;;;;;;6.13;4.60;;;;;;;;;;2082271;28;20215;-55
2020/12/25 00:23:30;;;;;;;4.50;4.10;;;;;;;;;;2090967;28;20207;-58
2020/12/25 00:24:30;;;;;;;12.00;5.50;;;;;;;;;;2074524;28;20204;-56
2020/12/25 00:25:30;;;;;;;4.93;4.20;;;;;;;;;;2074363;28;20177;-58
2020/12/25 00:26:31;;;;;;;5.33;4.27;;;;;;;;;;2091632;28;20179;-58
2020/12/25 00:27:32;;;;;;;5.40;4.30;;;;;;;;;;2089083;28;20182;-57
2020/12/25 00:28:32;;;;;;;6.10;4.93;;;;;;;;;;2084250;28;20187;-56
2020/12/25 00:29:32;;;;;;;8.83;5.90;;;;;;;;;;2085123;28;20270;-57
2020/12/25 00:30:32;;;;;;;8.57;4.37;;;;;;;;;;2081459;28;20180;-63
2020/12/25 00:31:34;;;;;;;7.17;4.43;;;;;;;;;;2083341;28;20184;-59
2020/12/25 00:32:34;;;;;;;8.10;3.83;;;;;;;;;;2076729;28;20208;-58
2020/12/25 00:33:35;;;;;;;4.93;3.43;;;;;;;;;;2082582;28;20231;-57
2020/12/25 00:34:35;;;;;;;4.37;3.33;;;;;;;;;;2091930;28;20258;-57
2020/12/25 00:35:35;;;;;;;6.67;4.27;;;;;;;;;;2083058;28;20212;-60
2020/12/25 00:36:37;;;;;;;6.20;3.90;;;;;;;;;;2075349;28;20196;-59
2020/12/25 00:37:37;;;;;;;7.27;3.33;;;;;;;;;;2081874;28;20227;-58
2020/12/25 00:38:38;;;;;;;8.87;3.77;;;;;;;;;;2075304;28;20235;-58
2020/12/25 00:39:39;;;;;;;3.63;2.93;;;;;;;;;;2083068;28;20274;-58
2020/12/25 00:40:43;;;;;;;7.10;4.27;;;;;;;;;;2085271;28;20562;-59
2020/12/25 00:41:43;;;;;;;4.63;3.23;;;;;;;;;;2090102;28;20186;-56
2020/12/25 00:42:43;;;;;;;4.80;2.80;;;;;;;;;;2087440;28;20229;-58
2020/12/25 00:43:43;;;;;;;4.37;3.20;;;;;;;;;;2087699;28;20171;-56
2020/12/25 00:44:44;;;;;;;7.20;3.20;;;;;;;;;;2082020;28;20192;-58
2020/12/25 00:45:44;;;;;;;3.70;3.40;;;;;;;;;;2073732;28;20651;-58
2020/12/25 00:46:45;;;;;;;4.93;3.40;;;;;;;;;;2082414;28;20692;-55
2020/12/25 00:47:46;;;;;;;4.53;2.80;;;;;;;;;;2073746;28;20180;-59
2020/12/25 00:48:46;;;;;;;5.63;3.13;;;;;;;;;;2075076;28;20183;-57
2020/12/25 00:49:46;;;;;;;5.33;4.00;;;;;;;;;;2075376;28;20813;-56
2020/12/25 00:50:47;;;;;;;7.37;3.40;;;;;;;;;;2075132;28;20243;-56
2020/12/25 00:51:48;;;;;;;6.93;3.73;;;;;;;;;;2075137;28;20181;-55
2020/12/25 00:52:48;;;;;;;8.03;4.07;;;;;;;;;;2074544;28;20296;-56
2020/12/25 00:53:49;;;;;;;6.80;3.60;;;;;;;;;;2069329;28;20533;-56
2020/12/25 00:54:52;;;;;;;5.33;3.60;;;;;;;;;;2075175;28;20193;-58
2020/12/25 00:55:53;;;;;;;3.63;3.10;;;;;;;;;;2068826;28;20193;-58
2020/12/25 00:56:54;;;;;;;7.00;3.30;;;;;;;;;;2074268;28;20672;-58
2020/12/25 00:58:03;;;;;;;9.17;3.20;;;;;;;;;;2076228;28;20181;-57
2020/12/25 00:59:03;;;;;;;5.50;3.30;;;;;;;;;;2085048;28;20672;-57
2020/12/25 01:00:04;;;;;;;8.30;3.50;;;;;;;;;;2084378;28;20172;-56
2020/12/25 01:01:04;;;;;;;7.37;3.43;;;;;;;;;;2083521;28;20188;-57
2020/12/25 01:02:05;;;;;;;4.83;3.00;;;;;;;;;;2087031;28;20180;-59
2020/12/25 01:03:05;;;;;;;3.77;2.93;;;;;;;;;;2081288;28;20243;-59
2020/12/25 01:04:05;;;;;;;6.47;3.37;;;;;;;;;;2078586;28;20716;-55
2020/12/25 01:05:05;;;;;;;6.80;3.47;;;;;;;;;;2091256;28;20532;-56
2020/12/25 01:06:10;;;;;;;8.50;4.23;;;;;;;;;;2092211;28;20253;-54
2020/12/25 01:07:10;;;;;;;6.37;3.63;;;;;;;;;;2091227;28;20168;-54
2020/12/25 01:08:10;;;;;;;6.43;4.20;;;;;;;;;;2074535;28;20595;-58
2020/12/25 01:09:10;;;;;;;5.20;4.10;;;;;;;;;;2074408;28;20231;-57
2020/12/25 01:10:11;;;;;;;6.00;3.37;;;;;;;;;;2092019;28;20200;-58
2020/12/25 01:11:11;;;;;;;5.07;3.60;;;;;;;;;;2078955;28;20712;-59
2020/12/25 01:12:11;;;;;;;7.83;3.77;;;;;;;;;;2074352;28;20642;-59
2020/12/25 01:13:12;;;;;;;5.70;3.87;;;;;;;;;;2084157;28;20182;-57
2020/12/25 01:14:12;;;;;;;6.43;4.00;;;;;;;;;;2083641;28;20160;-58
2020/12/25 01:15:12;;;;;;;6.63;3.87;;;;;;;;;;2074545;28;20223;-55
2020/12/25 01:16:16;;;;;;;6.33;3.33;;;;;;;;;;2083058;28;20222;-57
2020/12/25 01:17:16;;;;;;;5.33;4.03;;;;;;;;;;2091005;28;20163;-56
2020/12/25 01:18:16;;;;;;;8.57;4.27;;;;;;;;;;2083258;28;20208;-58
2020/12/25 01:19:17;;;;;;;8.87;4.33;;;;;;;;;;2083485;28;20184;-58
2020/12/25 01:20:17;;;;;;;15.07;4.07;;;;;;;;;;2077362;28;20187;-57
2020/12/25 01:21:17;;;;;;;6.97;3.70;;;;;;;;;;2070918;28;20308;-58
2020/12/25 01:23:24;;;;;;;6.50;4.17;;;;;;;;;;2076040;28;20285;-56
2020/12/25 01:24:27;;;;;;;10.10;3.93;;;;;;;;;;2073553;28;20679;-55
2020/12/25 01:25:28;;;;;;;6.17;3.40;;;;;;;;;;2064163;28;20284;-57
2020/12/25 01:26:28;;;;;;;7.30;3.77;;;;;;;;;;2074152;28;20184;-58
2020/12/25 01:27:28;;;;;;;9.93;3.73;;;;;;;;;;2082345;28;20637;-57
2020/12/25 01:28:29;;;;;;;4.87;3.73;;;;;;;;;;2083665;28;20251;-57
2020/12/25 01:29:29;;;;;;;5.20;3.10;;;;;;;;;;2083223;28;20306;-56
2020/12/25 01:30:29;;;;;;;5.77;3.13;;;;;;;;;;2082965;28;20260;-55
2020/12/25 01:31:30;;;;;;;6.60;3.73;;;;;;;;;;2082283;28;20168;-53
2020/12/25 01:32:34;;;;;;;4.63;3.07;;;;;;;;;;2082078;28;20184;-54
2020/12/25 01:33:35;;;;;;;4.67;3.30;;;;;;;;;;2077257;28;20205;-57
2020/12/25 01:34:35;;;;;;;7.37;3.47;;;;;;;;;;2082369;28;20609;-57
2020/12/25 01:35:37;;;;;;;8.40;3.57;;;;;;;;;;2083436;28;20235;-53
2020/12/25 01:36:37;;;;;;;3.67;3.27;;;;;;;;;;2083207;28;20172;-57
2020/12/25 01:37:37;;;;;;;7.93;3.20;;;;;;;;;;2082473;28;20207;-55
2020/12/25 01:38:37;;;;;;;7.07;3.80;;;;;;;;;;2083322;28;20706;-57
2020/12/25 01:39:37;;;;;;;6.33;3.03;;;;;;;;;;2083194;28;20835;-55
2020/12/25 01:40:38;;;;;;;8.70;3.53;;;;;;;;;;2073387;28;20200;-57
2020/12/25 01:41:38;;;;;;;11.77;3.67;;;;;;;;;;2068136;28;20178;-54
2020/12/25 01:42:38;;;;;;;8.20;3.53;;;;;;;;;;2078940;28;20203;-57
2020/12/25 01:43:38;;;;;;;5.73;3.50;;;;;;;;;;2081513;28;20242;-56
2020/12/25 01:44:39;;;;;;;4.00;3.53;;;;;;;;;;2076267;28;20201;-57
2020/12/25 01:45:39;;;;;;;8.30;3.73;;;;;;;;;;2079998;28;20645;-58
2020/12/25 01:46:40;;;;;;;5.53;2.73;;;;;;;;;;2082003;28;20236;-57
2020/12/25 01:47:40;;;;;;;7.33;3.80;;;;;;;;;;2068320;28;20181;-56
2020/12/25 01:48:41;;;;;;;6.60;3.80;;;;;;;;;;2073123;28;20670;-55
2020/12/25 01:49:43;;;;;;;7.23;3.50;;;;;;;;;;2081944;28;20180;-56
2020/12/25 01:50:43;;;;;;;8.90;3.47;;;;;;;;;;2073775;28;20192;-55
2020/12/25 01:51:43;;;;;;;5.80;3.50;;;;;;;;;;2073688;28;20188;-57
2020/12/25 01:52:44;;;;;;;5.27;3.40;;;;;;;;;;2081542;28;20198;-59
2020/12/25 01:53:45;;;;;;;6.43;3.33;;;;;;;;;;2076740;28;20173;-56
2020/12/25 01:54:46;;;;;;;6.33;3.83;;;;;;;;;;2081757;28;20212;-56
2020/12/25 01:55:47;;;;;;;7.67;3.90;;;;;;;;;;2066076;28;20204;-56
2020/12/25 01:56:47;;;;;;;5.20;3.90;;;;;;;;;;2073785;28;20551;-57
2020/12/25 01:57:48;;;;;;;7.17;4.27;;;;;;;;;;2071927;28;20858;-58
2020/12/25 01:58:48;;;;;;;4.13;3.73;;;;;;;;;;2070478;28;20173;-57
2020/12/25 01:59:50;;;;;;;12.17;7.97;;;;;;;;;;2081445;28;20216;-56
2020/12/25 02:00:51;;;;;;;9.33;6.20;;;;;;;;;;2082113;28;20184;-58
2020/12/25 02:01:51;;;;;;;13.13;7.03;;;;;;;;;;2072966;28;20172;-56
2020/12/25 02:02:51;;;;;;;6.47;4.20;;;;;;;;;;2071851;28;20711;-58
2020/12/25 02:03:52;;;;;;;11.60;5.63;;;;;;;;;;2081871;28;20646;-55
2020/12/25 02:04:52;;;;;;;8.77;6.13;;;;;;;;;;2082081;28;20208;-56
2020/12/25 02:05:53;;;;;;;9.63;4.40;;;;;;;;;;2082176;28;20172;-58
2020/12/25 02:06:53;;;;;;;9.80;3.67;;;;;;;;;;2082078;28;20229;-57
2020/12/25 02:07:56;;;;;;;4.43;3.40;;;;;;;;;;2081747;28;20164;-52
2020/12/25 02:08:56;;;;;;;7.37;3.60;;;;;;;;;;2081341;28;20573;-58
2020/12/25 02:09:57;;;;;;;8.63;5.23;;;;;;;;;;2079473;28;20176;-57
2020/12/25 02:10:57;;;;;;;5.23;4.20;;;;;;;;;;2076031;28;20201;-55
2020/12/25 02:11:57;;;;;;;7.77;4.63;;;;;;;;;;2073322;28;20295;-57
2020/12/25 02:12:57;;;;;;;5.07;3.97;;;;;;;;;;2066087;28;20233;-59
2020/12/25 02:13:58;;;;;;;7.10;4.70;;;;;;;;;;2075450;28;20732;-56
2020/12/25 02:14:58;;;;;;;4.03;3.43;;;;;;;;;;2070712;28;20369;-57
2020/12/25 02:15:58;;;;;;;6.00;3.87;;;;;;;;;;2069557;28;20200;-59
2020/12/25 02:16:59;;;;;;;4.63;3.70;;;;;;;;;;2075627;28;20227;-57
2020/12/25 02:17:59;;;;;;;10.10;3.93;;;;;;;;;;2081127;28;20597;-57
2020/12/25 02:18:59;;;;;;;12.07;4.60;;;;;;;;;;2079694;28;20698;-58
2020/12/25 02:20:03;;;;;;;8.23;3.73;;;;;;;;;;2075764;28;20240;-59
2020/12/25 02:21:03;;;;;;;6.50;4.00;;;;;;;;;;2081997;28;20188;-55
2020/12/25 02:22:04;;;;;;;4.03;3.63;;;;;;;;;;2078975;28;20187;-58
2020/12/25 02:23:04;;;;;;;6.13;3.83;;;;;;;;;;2077291;28;20212;-56
2020/12/25 02:24:04;;;;;;;8.63;4.53;;;;;;;;;;2073800;28;20697;-54
2020/12/25 02:25:05;;;;;;;8.00;3.60;;;;;;;;;;2081723;28;20208;-56
2020/12/25 02:26:05;;;;;;;6.83;4.30;;;;;;;;;;2081586;28;20165;-57
2020/12/25 02:27:05;;;;;;;8.30;3.90;;;;;;;;;;2081459;28;20176;-54
2020/12/25 02:28:05;;;;;;;10.33;4.83;;;;;;;;;;2081901;28;20191;-57
2020/12/25 02:29:06;;;;;;;8.83;4.20;;;;;;;;;;2081904;28;20182;-57
2020/12/25 02:30:07;;;;;;;10.77;3.60;;;;;;;;;;2081906;28;20558;-56
2020/12/25 02:31:07;;;;;;;8.17;4.60;;;;;;;;;;2072827;28;20169;-53
2020/12/25 02:32:07;;;;;;;8.77;4.20;;;;;;;;;;2068941;28;20209;-52
2020/12/25 02:33:07;;;;;;;9.50;4.57;;;;;;;;;;2080335;28;20622;-55
2020/12/25 02:34:08;;;;;;;7.40;4.63;;;;;;;;;;2077485;28;20176;-54
2020/12/25 02:35:08;;;;;;;8.83;3.77;;;;;;;;;;2078655;28;20251;-56
2020/12/25 02:36:08;;;;;;;12.30;5.33;;;;;;;;;;2072279;28;20176;-57
2020/12/25 02:37:08;;;;;;;12.50;5.40;;;;;;;;;;2068086;28;20165;-56
2020/12/25 02:38:09;;;;;;;16.73;5.93;;;;;;;;;;2077568;28;20181;-56
2020/12/25 02:39:09;;;;;;;10.90;4.90;;;;;;;;;;2075876;28;20194;-56
2020/12/25 02:40:09;;;;;;;12.33;5.70;;;;;;;;;;2073810;28;20654;-59
2020/12/25 02:41:09;;;;;;;11.40;5.40;;;;;;;;;;2071794;28;20286;-54
2020/12/25 02:42:10;;;;;;;13.50;6.50;;;;;;;;;;2081710;28;20603;-56
2020/12/25 02:43:10;;;;;;;12.73;6.23;;;;;;;;;;2077738;28;20196;-54
2020/12/25 02:44:11;;;;;;;13.70;6.20;;;;;;;;;;2081129;28;20180;-51
2020/12/25 02:45:11;;;;;;;21.47;8.73;;;;;;;;;;2072806;28;20169;-54
2020/12/25 02:46:11;;;;;;;21.83;8.77;;;;;;;;;;2072106;28;20174;-53
2020/12/25 02:47:12;;;;;;;16.90;6.27;;;;;;;;;;2077302;28;20894;-56
2020/12/25 02:48:12;;;;;;;9.50;5.60;;;;;;;;;;2077630;28;20176;-53
2020/12/25 02:49:12;;;;;;;10.27;5.80;;;;;;;;;;2078045;28;20212;-54
2020/12/25 02:50:12;;;;;;;8.90;4.57;;;;;;;;;;2081938;28;20211;-53
2020/12/25 02:51:16;;;;;;;7.50;5.30;;;;;;;;;;2075784;28;20173;-53
2020/12/25 02:52:16;;;;;;;8.50;4.47;;;;;;;;;;2077812;28;20180;-52
2020/12/25 02:53:16;;;;;;;7.63;4.43;;;;;;;;;;2072539;28;20458;-52
2020/12/25 02:54:16;;;;;;;10.83;3.77;;;;;;;;;;2064790;28;20177;-54
2020/12/25 02:55:17;;;;;;;8.37;3.57;;;;;;;;;;2066280;28;20646;-59
2020/12/25 02:56:18;;;;;;;10.77;3.70;;;;;;;;;;2067317;28;20239;-55
2020/12/25 02:57:18;;;;;;;8.17;4.20;;;;;;;;;;2072142;28;20180;-53
2020/12/25 02:58:18;;;;;;;8.23;4.00;;;;;;;;;;2076929;28;20903;-57
2020/12/25 02:59:19;;;;;;;9.67;3.37;;;;;;;;;;2081889;28;20207;-56
2020/12/25 03:00:19;;;;;;;7.60;3.93;;;;;;;;;;2077586;28;20182;-57
2020/12/25 03:01:19;;;;;;;6.57;3.67;;;;;;;;;;2080466;28;20649;-55
2020/12/25 03:02:19;;;;;;;12.33;3.43;;;;;;;;;;2079678;28;20168;-57
2020/12/25 03:03:20;;;;;;;6.67;3.50;;;;;;;;;;2078435;28;20215;-57
2020/12/25 03:04:21;;;;;;;7.63;3.87;;;;;;;;;;2077673;28;20177;-57
2020/12/25 03:05:21;;;;;;;10.40;3.97;;;;;;;;;;2080626;28;20207;-57
2020/12/25 03:06:21;;;;;;;10.93;4.20;;;;;;;;;;2077130;28;20436;-56
2020/12/25 03:07:22;;;;;;;6.50;3.60;;;;;;;;;;2068343;28;20557;-54
2020/12/25 03:08:22;;;;;;;6.43;3.87;;;;;;;;;;2070445;28;20193;-56
2020/12/25 03:09:22;;;;;;;7.90;4.00;;;;;;;;;;2080623;28;20275;-57
2020/12/25 03:10:22;;;;;;;13.57;4.23;;;;;;;;;;2079765;28;20594;-57
2020/12/25 03:11:23;;;;;;;9.70;3.30;;;;;;;;;;2072902;28;20207;-57
2020/12/25 03:12:24;;;;;;;7.27;3.67;;;;;;;;;;2070738;28;20224;-58
2020/12/25 03:13:24;;;;;;;7.20;4.57;;;;;;;;;;2071828;28;20456;-56
2020/12/25 03:14:24;;;;;;;6.37;3.43;;;;;;;;;;2058599;28;20174;-57
2020/12/25 03:15:25;;;;;;;6.43;3.87;;;;;;;;;;2070033;28;20200;-57
2020/12/25 03:16:25;;;;;;;7.50;3.37;;;;;;;;;;2077169;28;20184;-56
2020/12/25 03:17:25;;;;;;;7.77;3.67;;;;;;;;;;2075145;28;20526;-54
2020/12/25 03:18:25;;;;;;;8.37;4.27;;;;;;;;;;2078565;28;20196;-57
2020/12/25 03:19:26;;;;;;;10.73;3.60;;;;;;;;;;2075271;28;20231;-56
2020/12/25 03:20:26;;;;;;;7.17;3.67;;;;;;;;;;2079452;28;20218;-56
2020/12/25 03:21:26;;;;;;;10.97;3.93;;;;;;;;;;2074862;28;20555;-57
2020/12/25 03:22:26;;;;;;;9.43;3.90;;;;;;;;;;2070705;28;20661;-56
2020/12/25 03:23:27;;;;;;;6.00;4.00;;;;;;;;;;2065783;28;20189;-54
2020/12/25 03:24:27;;;;;;;8.27;3.13;;;;;;;;;;2079306;28;20226;-58
2020/12/25 03:25:27;;;;;;;7.00;3.50;;;;;;;;;;2075132;28;20189;-58
2020/12/25 03:26:27;;;;;;;8.93;3.90;;;;;;;;;;2078230;28;20610;-57
2020/12/25 03:27:28;;;;;;;10.30;3.67;;;;;;;;;;2070409;28;20185;-57
2020/12/25 03:28:28;;;;;;;11.27;3.77;;;;;;;;;;2072255;28;20216;-57
2020/12/25 03:29:28;;;;;;;8.83;4.07;;;;;;;;;;2074633;28;20636;-55
2020/12/25 03:30:29;;;;;;;6.20;3.50;;;;;;;;;;2078707;28;20866;-56
2020/12/25 03:31:29;;;;;;;9.23;4.00;;;;;;;;;;2070985;28;20208;-56
2020/12/25 03:32:29;;;;;;;6.50;3.07;;;;;;;;;;2072341;28;20578;-57
2020/12/25 03:33:30;;;;;;;10.90;4.03;;;;;;;;;;2074728;28;20623;-59
2020/12/25 03:34:30;;;;;;;7.93;4.00;;;;;;;;;;2079671;28;20179;-53
2020/12/25 03:35:30;;;;;;;5.93;3.30;;;;;;;;;;2075915;28;20681;-58
2020/12/25 03:36:31;;;;;;;8.23;3.10;;;;;;;;;;2078751;28;20666;-52
2020/12/25 03:37:32;;;;;;;9.70;3.50;;;;;;;;;;2076172;28;20215;-58
2020/12/25 03:38:32;;;;;;;5.90;3.23;;;;;;;;;;2064469;28;20884;-58
2020/12/25 03:39:32;;;;;;;9.60;3.60;;;;;;;;;;2070972;28;20235;-54
2020/12/25 03:40:34;;;;;;;13.07;3.93;;;;;;;;;;2081138;28;20215;-52
2020/12/25 03:41:34;;;;;;;11.30;3.40;;;;;;;;;;2080817;28;20172;-57
2020/12/25 03:42:34;;;;;;;11.00;3.50;;;;;;;;;;2075036;28;20866;-57
2020/12/25 03:43:34;;;;;;;9.50;3.60;;;;;;;;;;2073120;28;20180;-55
2020/12/25 03:44:35;;;;;;;5.87;3.60;;;;;;;;;;2075430;28;20176;-57
2020/12/25 03:45:35;;;;;;;7.13;3.10;;;;;;;;;;2080130;28;20246;-51
2020/12/25 03:46:35;;;;;;;5.47;3.03;;;;;;;;;;2067023;28;20180;-54
2020/12/25 03:47:36;;;;;;;8.97;4.53;;;;;;;;;;2062634;28;20192;-56
2020/12/25 03:48:36;;;;;;;9.40;3.63;;;;;;;;;;2063822;28;20180;-56
2020/12/25 03:49:36;;;;;;;9.17;3.53;;;;;;;;;;2072295;28;20252;-56
2020/12/25 03:50:37;;;;;;;9.10;3.60;;;;;;;;;;2076022;28;20184;-58
2020/12/25 03:51:37;;;;;;;7.53;3.50;;;;;;;;;;2080627;28;20177;-59
2020/12/25 03:52:37;;;;;;;6.20;3.20;;;;;;;;;;2077229;28;20190;-55
2020/12/25 03:53:38;;;;;;;6.73;3.83;;;;;;;;;;2073403;28;20268;-57
2020/12/25 03:54:38;;;;;;;11.13;3.50;;;;;;;;;;2071662;28;20188;-58
2020/12/25 03:55:38;;;;;;;6.63;3.30;;;;;;;;;;2064349;28;20217;-57
2020/12/25 03:56:38;;;;;;;5.27;3.93;;;;;;;;;;2077267;28;20525;-56
2020/12/25 03:57:39;;;;;;;7.33;3.27;;;;;;;;;;2079359;28;20180;-59
2020/12/25 03:58:39;;;;;;;8.57;3.60;;;;;;;;;;2080681;28;20203;-54
2020/12/25 03:59:39;;;;;;;8.20;3.37;;;;;;;;;;2078144;28;20176;-56
2020/12/25 04:00:39;;;;;;;7.77;3.77;;;;;;;;;;2081318;28;20230;-57
2020/12/25 04:01:40;;;;;;;5.67;3.40;;;;;;;;;;2072637;28;20192;-59
2020/12/25 04:02:40;;;;;;;10.23;4.17;;;;;;;;;;2076297;28;20168;-56
2020/12/25 04:03:40;;;;;;;6.90;4.00;;;;;;;;;;2080476;28;20211;-56
2020/12/25 04:04:40;;;;;;;7.47;3.10;;;;;;;;;;2081015;28;20615;-56
2020/12/25 04:05:41;;;;;;;6.13;3.00;;;;;;;;;;2070930;28;20176;-57
2020/12/25 04:06:41;;;;;;;6.93;2.97;;;;;;;;;;2072089;28;20180;-58
2020/12/25 04:07:41;;;;;;;7.80;3.10;;;;;;;;;;2077388;28;20176;-56
2020/12/25 04:08:42;;;;;;;9.17;3.03;;;;;;;;;;2073304;28;20209;-57
2020/12/25 04:09:43;;;;;;;7.27;3.60;;;;;;;;;;2080285;28;20262;-58
2020/12/25 04:10:43;;;;;;;8.67;3.13;;;;;;;;;;2072461;28;20418;-58
2020/12/25 04:11:43;;;;;;;8.13;3.97;;;;;;;;;;2073152;28;20669;-56
2020/12/25 04:12:43;;;;;;;8.20;4.53;;;;;;;;;;2072854;28;20566;-55
2020/12/25 04:13:44;;;;;;;25.97;4.60;;;;;;;;;;2073551;28;20188;-57
2020/12/25 04:14:44;;;;;;;9.93;4.13;;;;;;;;;;2080824;28;20176;-56
2020/12/25 04:15:44;;;;;;;8.87;3.60;;;;;;;;;;2079634;28;20200;-56
2020/12/25 04:16:45;;;;;;;7.73;3.80;;;;;;;;;;2075479;28;20176;-56
2020/12/25 04:17:45;;;;;;;8.00;3.30;;;;;;;;;;2080952;28;20184;-58
2020/12/25 04:18:45;;;;;;;7.60;3.90;;;;;;;;;;2080965;28;20248;-56
2020/12/25 04:19:45;;;;;;;14.37;4.73;;;;;;;;;;2080905;28;20645;-55
2020/12/25 04:20:45;;;;;;;14.47;3.90;;;;;;;;;;2080684;28;20234;-55
2020/12/25 04:21:46;;;;;;;6.40;3.90;;;;;;;;;;2077655;28;20252;-57
2020/12/25 04:22:46;;;;;;;5.50;3.63;;;;;;;;;;2074324;28;20200;-56
2020/12/25 04:23:46;;;;;;;8.37;3.60;;;;;;;;;;2082171;28;20182;-55
2020/12/25 04:24:46;;;;;;;8.97;4.07;;;;;;;;;;2075877;28;20645;-56
2020/12/25 04:25:47;;;;;;;10.27;4.00;;;;;;;;;;2082782;28;20180;-56
2020/12/25 04:26:47;;;;;;;7.33;3.60;;;;;;;;;;2081379;28;20259;-57
2020/12/25 04:27:47;;;;;;;8.27;3.83;;;;;;;;;;2082251;28;20640;-52
2020/12/25 04:28:47;;;;;;;6.77;4.20;;;;;;;;;;2082942;28;20211;-56
2020/12/25 04:29:48;;;;;;;8.07;3.93;;;;;;;;;;2076448;28;20367;-56
2020/12/25 04:30:48;;;;;;;6.83;3.97;;;;;;;;;;2082739;28;20179;-56
2020/12/25 04:31:48;;;;;;;15.53;3.87;;;;;;;;;;2076731;28;20184;-56
2020/12/25 04:32:49;;;;;;;8.27;3.20;;;;;;;;;;2078363;28;20200;-53
2020/12/25 04:33:49;;;;;;;9.27;3.73;;;;;;;;;;2066548;28;20624;-57
2020/12/25 04:34:49;;;;;;;8.83;3.37;;;;;;;;;;2066238;28;20263;-56
2020/12/25 04:35:49;;;;;;;11.23;3.77;;;;;;;;;;2066632;28;20677;-56
2020/12/25 04:36:49;;;;;;;11.50;3.70;;;;;;;;;;2069086;28;20177;-58
2020/12/25 04:37:50;;;;;;;7.80;3.70;;;;;;;;;;2081899;28;20180;-55
2020/12/25 04:38:50;;;;;;;8.13;3.87;;;;;;;;;;2082529;28;20176;-52
2020/12/25 04:39:50;;;;;;;7.60;3.33;;;;;;;;;;2076604;28;20200;-56
2020/12/25 04:40:50;;;;;;;7.57;4.20;;;;;;;;;;2072343;28;20176;-56
2020/12/25 04:41:51;;;;;;;7.93;3.50;;;;;;;;;;2070637;28;20187;-57
2020/12/25 04:42:51;;;;;;;13.57;4.10;;;;;;;;;;2082333;28;20199;-55
2020/12/25 04:43:52;;;;;;;9.17;3.80;;;;;;;;;;2079543;28;20203;-56
2020/12/25 04:44:52;;;;;;;9.17;4.13;;;;;;;;;;2082360;28;20285;-59
2020/12/25 04:45:53;;;;;;;7.07;3.93;;;;;;;;;;2082382;28;20200;-56
2020/12/25 04:46:58;;;;;;;7.93;3.50;;;;;;;;;;2081191;28;20180;-56
2020/12/25 04:47:58;;;;;;;9.23;4.13;;;;;;;;;;2080393;28;20447;-53
2020/12/25 04:48:59;;;;;;;10.17;3.50;;;;;;;;;;2075266;28;20420;-57
2020/12/25 04:50:00;;;;;;;13.87;4.00;;;;;;;;;;2082015;28;20188;-55
2020/12/25 04:51:01;;;;;;;10.13;3.97;;;;;;;;;;2080725;28;20400;-56
2020/12/25 04:52:01;;;;;;;5.40;3.70;;;;;;;;;;2076520;28;20470;-52
2020/12/25 04:53:02;;;;;;;10.87;3.90;;;;;;;;;;2081956;28;20194;-56
2020/12/25 04:54:02;;;;;;;4.90;3.43;;;;;;;;;;2071436;28;20289;-57
2020/12/25 04:55:03;;;;;;;12.17;3.80;;;;;;;;;;2068757;28;20184;-56
2020/12/25 04:56:03;;;;;;;10.03;3.50;;;;;;;;;;2077688;28;20204;-57
2020/12/25 04:57:03;;;;;;;8.37;3.70;;;;;;;;;;2075735;28;20173;-55
2020/12/25 04:58:03;;;;;;;8.17;3.50;;;;;;;;;;2069447;28;20235;-56
2020/12/25 04:59:04;;;;;;;6.50;3.63;;;;;;;;;;2064406;28;20606;-55
2020/12/25 05:00:30;;;;;;;8.63;3.30;;;;;;;;;;2067685;28;20590;-54
2020/12/25 05:01:30;;;;;;;11.30;3.60;;;;;;;;;;2070387;28;20283;-55
2020/12/25 05:02:31;;;;;;;9.83;3.90;;;;;;;;;;2076587;28;20480;-54
2020/12/25 05:03:35;;;;;;;11.50;3.50;;;;;;;;;;2081116;28;20269;-55
2020/12/25 05:04:35;;;;;;;9.83;4.23;;;;;;;;;;2083115;28;20537;-56
2020/12/25 05:05:35;;;;;;;7.20;3.57;;;;;;;;;;2082370;28;20604;-57
2020/12/25 05:06:35;;;;;;;7.43;3.43;;;;;;;;;;2075429;28;20301;-57
2020/12/25 05:07:36;;;;;;;10.80;4.00;;;;;;;;;;2082188;28;20279;-55
2020/12/25 05:08:37;;;;;;;12.73;4.50;;;;;;;;;;2075729;28;20192;-56
2020/12/25 05:09:38;;;;;;;12.17;4.63;;;;;;;;;;2082925;28;20180;-58
2020/12/25 05:10:38;;;;;;;7.13;4.00;;;;;;;;;;2076421;28;20433;-58
2020/12/25 05:11:38;;;;;;;10.93;4.33;;;;;;;;;;2074537;28;20185;-56
2020/12/25 05:12:39;;;;;;;9.53;3.83;;;;;;;;;;2071288;28;20180;-57
2020/12/25 05:13:42;;;;;;;12.87;3.80;;;;;;;;;;2083665;28;20672;-56
2020/12/25 05:14:43;;;;;;;11.90;4.10;;;;;;;;;;2077457;28;20207;-56
2020/12/25 05:15:47;;;;;;;9.87;4.03;;;;;;;;;;2066858;28;20458;-55
2020/12/25 05:16:47;;;;;;;9.10;4.00;;;;;;;;;;2073774;28;20169;-56
2020/12/25 05:17:47;;;;;;;9.93;4.47;;;;;;;;;;2081510;28;20440;-55
2020/12/25 05:18:49;;;;;;;10.30;4.53;;;;;;;;;;2076136;28;20168;-55
2020/12/25 05:19:50;;;;;;;13.40;4.77;;;;;;;;;;2067579;28;20181;-56
2020/12/25 05:20:53;;;;;;;9.97;4.63;;;;;;;;;;2067722;28;20419;-56
2020/12/25 05:21:57;;;;;;;8.00;4.00;;;;;;;;;;2078893;28;20180;-54
2020/12/25 05:23:08;;;;;;;12.10;4.20;;;;;;;;;;2077427;28;20540;-53
2020/12/25 05:24:09;;;;;;;9.27;3.97;;;;;;;;;;2083383;28;20421;-57
2020/12/25 05:25:09;;;;;;;11.70;4.80;;;;;;;;;;2081175;28;20542;-54
2020/12/25 05:26:10;;;;;;;8.13;4.43;;;;;;;;;;2082561;28;20572;-55
2020/12/25 05:27:12;;;;;;;9.23;4.37;;;;;;;;;;2080937;28;20169;-58
2020/12/25 05:28:13;;;;;;;9.40;4.30;;;;;;;;;;2078849;28;20914;-57
2020/12/25 05:29:14;;;;;;;7.80;4.07;;;;;;;;;;2079532;28;20405;-56
2020/12/25 05:30:15;;;;;;;11.80;4.87;;;;;;;;;;2078286;28;20304;-56
2020/12/25 05:31:16;;;;;;;12.67;4.10;;;;;;;;;;2074815;28;20501;-55
2020/12/25 05:32:17;;;;;;;13.40;4.87;;;;;;;;;;2079126;28;20176;-55
2020/12/25 05:33:18;;;;;;;9.97;4.40;;;;;;;;;;2071262;28;20430;-55
2020/12/25 05:34:18;;;;;;;11.93;4.30;;;;;;;;;;2073547;28;20275;-54
2020/12/25 05:35:21;;;;;;;11.83;5.20;;;;;;;;;;2080423;28;20207;-55
2020/12/25 05:36:26;;;;;;;13.53;5.50;;;;;;;;;;2079508;28;20180;-55
2020/12/25 05:37:36;;;;;;;6.77;4.20;;;;;;;;;;2081038;28;20417;-54
2020/12/25 05:38:38;;;;;;;11.10;4.90;;;;;;;;;;2073627;28;20452;-57
2020/12/25 05:39:38;;;;;;;8.97;4.57;;;;;;;;;;2073004;28;20418;-57
2020/12/25 05:40:42;;;;;;;9.43;3.90;;;;;;;;;;2073309;28;20414;-54
2020/12/25 05:41:44;;;;;;;5.37;3.90;;;;;;;;;;2066239;28;20177;-56
2020/12/25 05:42:48;;;;;;;11.80;4.57;;;;;;;;;;2077054;28;20430;-55
2020/12/25 05:43:49;;;;;;;9.53;4.57;;;;;;;;;;2081017;28;20504;-55
2020/12/25 05:44:49;;;;;;;11.77;4.43;;;;;;;;;;2080691;28;20418;-58
2020/12/25 05:45:50;;;;;;;10.67;4.10;;;;;;;;;;2078218;28;20428;-58
2020/12/25 05:46:50;;;;;;;9.30;4.20;;;;;;;;;;2081660;28;20188;-58
2020/12/25 05:48:04;;;;;;;9.07;4.10;;;;;;;;;;2079524;28;20691;-55
2020/12/25 05:49:04;;;;;;;8.47;4.27;;;;;;;;;;2074165;28;20520;-59
2020/12/25 05:50:06;;;;;;;10.20;4.30;;;;;;;;;;2079409;28;20444;-57
2020/12/25 05:51:07;;;;;;;14.63;4.77;;;;;;;;;;2078120;28;20169;-57
2020/12/25 05:52:07;;;;;;;14.13;4.93;;;;;;;;;;2080454;28;20425;-58
2020/12/25 05:53:07;;;;;;;17.57;4.80;;;;;;;;;;2074988;28;20595;-55
2020/12/25 05:54:07;;;;;;;9.70;4.03;;;;;;;;;;2077492;28;20192;-54
2020/12/25 05:55:09;;;;;;;13.63;5.10;;;;;;;;;;2082280;28;20234;-53
2020/12/25 05:56:10;;;;;;;11.47;4.57;;;;;;;;;;2080843;28;20168;-55
2020/12/25 05:57:10;;;;;;;13.80;4.60;;;;;;;;;;2077771;28;21094;-58
2020/12/25 05:58:14;;;;;;;10.17;4.47;;;;;;;;;;2078616;28;20169;-57
2020/12/25 05:59:15;;;;;;;12.33;5.20;;;;;;;;;;2077659;28;20183;-57
2020/12/25 06:00:16;;;;;;;8.87;4.50;;;;;;;;;;2078167;28;20496;-58
2020/12/25 06:01:17;;;;;;;9.53;3.97;;;;;;;;;;2078589;28;20272;-58
2020/12/25 06:02:18;;;;;;;11.53;4.63;;;;;;;;;;2078498;28;20905;-58
2020/12/25 06:03:18;;;;;;;11.33;5.13;;;;;;;;;;2082987;28;20246;-56
2020/12/25 06:04:19;;;;;;;15.20;4.97;;;;;;;;;;2079502;28;22283;-57